UAL2975 PAJN-KPDX
Flight info
| Callsign | UAL2975 |
|---|---|
| Flight time | N/A |
| Altitude | 37000 |
| Route | JNU6 SQM SEA BUWZO KRATR2 |
| Aircraft | B739/M-SDE2E3FGHIRWXY/LB1 |
Departure
| Time | 2026-04-20 21:30 |
|---|---|
| Airport | Juneau International Airport (PAJN) |
Arrival
| Time | N/A |
|---|---|
| Airport | Portland International Airport (KPDX) |
| Time | Latitude | Longitude | Altitude | Speed | Heading |
|---|---|---|---|---|---|
| 2026-04-20 21:16 | 58.35874 | -134.58472 | -12 ft | 0 kts | 103° |
| 2026-04-20 21:21 | 58.35875 | -134.58478 | -11 ft | 2 kts | 103° |
| 2026-04-20 21:21 | 58.35878 | -134.58505 | -13 ft | 2 kts | 94° |
| 2026-04-20 21:22 | 58.35878 | -134.58533 | -14 ft | 2 kts | 91° |
| 2026-04-20 21:22 | 58.35879 | -134.58556 | -16 ft | 1 kts | 123° |
| 2026-04-20 21:22 | 58.35887 | -134.58566 | -16 ft | 1 kts | 177° |
| 2026-04-20 21:22 | 58.35892 | -134.58565 | -16 ft | 0 kts | 187° |
| 2026-04-20 21:24 | 58.35891 | -134.58565 | -15 ft | 1 kts | 187° |
| 2026-04-20 21:25 | 58.35848 | -134.58569 | -15 ft | 7 kts | 181° |
| 2026-04-20 21:25 | 58.35795 | -134.58611 | -15 ft | 9 kts | 218° |
| 2026-04-20 21:25 | 58.35742 | -134.58621 | -15 ft | 3 kts | 127° |
| 2026-04-20 21:25 | 58.35733 | -134.58511 | -15 ft | 17 kts | 106° |
| 2026-04-20 21:26 | 58.35691 | -134.58231 | -13 ft | 21 kts | 104° |
| 2026-04-20 21:26 | 58.35654 | -134.57970 | -12 ft | 20 kts | 102° |
| 2026-04-20 21:26 | 58.35611 | -134.57646 | -13 ft | 29 kts | 104° |
| 2026-04-20 21:26 | 58.35559 | -134.57269 | -15 ft | 29 kts | 103° |
| 2026-04-20 21:27 | 58.35505 | -134.56902 | -18 ft | 28 kts | 104° |
| 2026-04-20 21:27 | 58.35455 | -134.56541 | -19 ft | 27 kts | 105° |
| 2026-04-20 21:27 | 58.35408 | -134.56200 | -19 ft | 26 kts | 104° |
| 2026-04-20 21:27 | 58.35363 | -134.55865 | -23 ft | 26 kts | 106° |
| 2026-04-20 21:28 | 58.35318 | -134.55541 | -23 ft | 24 kts | 104° |
| 2026-04-20 21:28 | 58.35279 | -134.55319 | -23 ft | 9 kts | 131° |
| 2026-04-20 21:28 | 58.35274 | -134.55312 | -23 ft | 0 kts | 145° |
| 2026-04-20 21:28 | 58.35247 | -134.55298 | -23 ft | 10 kts | 187° |
| 2026-04-20 21:29 | 58.35191 | -134.55335 | -23 ft | 5 kts | 237° |
| 2026-04-20 21:29 | 58.35186 | -134.55376 | -22 ft | 0 kts | 277° |
| 2026-04-20 21:29 | 58.35201 | -134.55507 | -22 ft | 36 kts | 284° |
| 2026-04-20 21:30 | 58.35325 | -134.56398 | -18 ft | 100 kts | 284° |
| 2026-04-20 21:30 | 58.35551 | -134.58026 | -11 ft | 151 kts | 283° |
| 2026-04-20 21:30 | 58.35852 | -134.59982 | 513 ft | 154 kts | 287° |
| 2026-04-20 21:30 | 58.36247 | -134.61845 | 1087 ft | 157 kts | 293° |
| 2026-04-20 21:31 | 58.36652 | -134.63843 | 1575 ft | 169 kts | 271° |
| 2026-04-20 21:31 | 58.36365 | -134.65985 | 2043 ft | 175 kts | 243° |
| 2026-04-20 21:31 | 58.36065 | -134.67522 | 2353 ft | 185 kts | 252° |
| 2026-04-20 21:31 | 58.35907 | -134.70024 | 2811 ft | 200 kts | 266° |
| 2026-04-20 21:32 | 58.35924 | -134.72716 | 3279 ft | 212 kts | 268° |
| 2026-04-20 21:32 | 58.35961 | -134.75607 | 3717 ft | 225 kts | 268° |
| 2026-04-20 21:32 | 58.35986 | -134.78633 | 4259 ft | 233 kts | 268° |
| 2026-04-20 21:32 | 58.36002 | -134.81342 | 4913 ft | 236 kts | 268° |
| 2026-04-20 21:33 | 58.36014 | -134.83511 | 5494 ft | 236 kts | 268° |
| 2026-04-20 21:33 | 58.36030 | -134.86688 | 6036 ft | 248 kts | 268° |
| 2026-04-20 21:33 | 58.36044 | -134.90028 | 6719 ft | 254 kts | 266° |
| 2026-04-20 21:33 | 58.35725 | -134.93247 | 7498 ft | 253 kts | 246° |
| 2026-04-20 21:34 | 58.34715 | -134.95975 | 8253 ft | 257 kts | 226° |
| 2026-04-20 21:34 | 58.33290 | -134.98015 | 8954 ft | 264 kts | 214° |
| 2026-04-20 21:34 | 58.31579 | -134.99356 | 9629 ft | 275 kts | 196° |
| 2026-04-20 21:34 | 58.29640 | -134.99306 | 10228 ft | 293 kts | 173° |
| 2026-04-20 21:35 | 58.27630 | -134.97975 | 10608 ft | 313 kts | 162° |
| 2026-04-20 21:35 | 58.25586 | -134.96313 | 10958 ft | 329 kts | 161° |
| 2026-04-20 21:35 | 58.23450 | -134.94568 | 11309 ft | 344 kts | 162° |
| 2026-04-20 21:35 | 58.21196 | -134.92760 | 11624 ft | 360 kts | 162° |
| 2026-04-20 21:36 | 58.18905 | -134.90691 | 11948 ft | 378 kts | 154° |
| 2026-04-20 21:36 | 58.16776 | -134.87585 | 12268 ft | 400 kts | 137° |
| 2026-04-20 21:36 | 58.15163 | -134.83247 | 12900 ft | 411 kts | 119° |
| 2026-04-20 21:36 | 58.14139 | -134.78183 | 13477 ft | 420 kts | 106° |
| 2026-04-20 21:37 | 58.13640 | -134.72759 | 14079 ft | 427 kts | 96° |
| 2026-04-20 21:37 | 58.13425 | -134.67114 | 14705 ft | 433 kts | 91° |
| 2026-04-20 21:37 | 58.13314 | -134.61427 | 15422 ft | 436 kts | 93° |
| 2026-04-20 21:37 | 58.12864 | -134.55747 | 16017 ft | 442 kts | 106° |
| 2026-04-20 21:38 | 58.11595 | -134.50539 | 16691 ft | 439 kts | 128° |
| 2026-04-20 21:38 | 58.09509 | -134.46478 | 17354 ft | 430 kts | 149° |
| 2026-04-20 21:38 | 58.06950 | -134.43767 | 18020 ft | 423 kts | 162° |
| 2026-04-20 21:38 | 58.04254 | -134.41591 | 18608 ft | 427 kts | 164° |
| 2026-04-20 21:39 | 58.01501 | -134.39362 | 19179 ft | 433 kts | 163° |